createdAt,value
2022-08-26T00:00:04.538Z,75.00
2022-08-26T00:00:39.861Z,75.00
2022-08-26T00:01:14.955Z,75.00
2022-08-26T00:01:50.245Z,75.00
2022-08-26T00:02:25.598Z,75.00
2022-08-26T00:03:00.635Z,75.00
2022-08-26T00:03:36.001Z,75.00
2022-08-26T00:04:11.190Z,75.00
2022-08-26T00:04:46.442Z,75.00
2022-08-26T00:05:21.966Z,75.00
2022-08-26T00:05:57.403Z,75.00
2022-08-26T00:06:32.528Z,75.00
2022-08-26T00:07:08.035Z,75.00
2022-08-26T00:07:50.278Z,75.00
2022-08-26T00:08:25.277Z,75.00
2022-08-26T00:09:00.602Z,75.00
2022-08-26T00:09:37.259Z,75.00
2022-08-26T00:10:11.438Z,75.00
2022-08-26T00:10:46.967Z,75.00
2022-08-26T00:11:26.934Z,75.00
2022-08-26T00:11:57.350Z,75.00
2022-08-26T00:12:37.474Z,75.00
2022-08-26T00:13:07.849Z,75.00
2022-08-26T00:13:47.909Z,75.00
2022-08-26T00:14:18.222Z,75.00
2022-08-26T00:14:53.322Z,75.00
2022-08-26T00:15:28.429Z,75.00
2022-08-26T00:16:03.847Z,75.00
2022-08-26T00:16:40.978Z,75.00
2022-08-26T00:17:14.098Z,75.00
2022-08-26T00:17:49.092Z,75.00
2022-08-26T00:18:24.172Z,75.00
2022-08-26T00:18:59.413Z,75.00
2022-08-26T00:19:34.700Z,75.00
2022-08-26T00:20:09.798Z,75.00
2022-08-26T00:20:44.973Z,75.00
2022-08-26T00:21:20.285Z,75.00
2022-08-26T00:21:55.810Z,75.00
2022-08-26T00:22:30.773Z,75.00
2022-08-26T00:23:06.275Z,75.00
2022-08-26T00:23:41.589Z,75.00
2022-08-26T00:24:16.682Z,75.00
2022-08-26T00:24:52.285Z,75.00
2022-08-26T00:25:27.705Z,75.00
2022-08-26T00:26:03.214Z,75.00
2022-08-26T00:26:38.301Z,75.00
2022-08-26T00:27:13.489Z,75.00
2022-08-26T00:27:48.723Z,75.00
2022-08-26T00:28:24.110Z,75.00
2022-08-26T00:28:59.384Z,75.00
2022-08-26T00:29:35.546Z,75.00
2022-08-26T00:30:09.907Z,75.00
2022-08-26T00:30:45.509Z,75.00
2022-08-26T00:31:20.747Z,75.00
2022-08-26T00:31:56.274Z,75.00
2022-08-26T00:32:31.522Z,75.00
2022-08-26T00:33:07.150Z,75.00
2022-08-26T00:33:42.136Z,75.00
2022-08-26T00:34:19.356Z,75.00
2022-08-26T00:34:53.009Z,75.00
2022-08-26T00:35:28.062Z,75.00
2022-08-26T00:36:03.407Z,75.00
2022-08-26T00:36:38.721Z,75.00
2022-08-26T00:37:16.129Z,75.00
2022-08-26T00:37:48.951Z,75.00
2022-08-26T00:38:24.137Z,75.00
2022-08-26T00:38:59.266Z,75.00
2022-08-26T00:39:34.842Z,75.00
2022-08-26T00:40:10.222Z,75.00
2022-08-26T00:40:45.404Z,75.00
2022-08-26T00:41:21.045Z,75.00
2022-08-26T00:41:56.123Z,75.00
2022-08-26T00:42:31.445Z,75.00
2022-08-26T00:43:07.247Z,75.00
2022-08-26T00:43:47.405Z,75.00
2022-08-26T00:44:17.505Z,75.00
2022-08-26T00:44:52.768Z,75.00
2022-08-26T00:45:27.964Z,75.00
2022-08-26T00:46:03.476Z,75.00
2022-08-26T00:46:38.635Z,75.00
2022-08-26T00:47:13.839Z,75.00
2022-08-26T00:47:49.018Z,75.00
2022-08-26T00:48:24.308Z,75.00
2022-08-26T00:48:59.615Z,75.00
2022-08-26T00:49:34.818Z,75.00
2022-08-26T00:50:10.020Z,75.00
2022-08-26T00:50:45.318Z,75.00
2022-08-26T00:51:20.938Z,75.00
2022-08-26T00:51:56.246Z,75.00
2022-08-26T00:52:31.843Z,75.00
2022-08-26T00:53:07.324Z,75.00
2022-08-26T00:53:42.553Z,75.00
2022-08-26T00:54:17.559Z,75.00
2022-08-26T00:54:53.167Z,75.00
2022-08-26T00:55:37.714Z,75.00
2022-08-26T00:56:03.653Z,75.00
2022-08-26T00:56:38.911Z,75.00
2022-08-26T00:57:16.110Z,75.00
2022-08-26T00:57:49.434Z,75.00
2022-08-26T00:58:24.917Z,75.00
2022-08-26T00:59:00.121Z,75.00
2022-08-26T00:59:35.312Z,75.00
2022-08-26T01:00:10.907Z,75.00
2022-08-26T01:00:46.149Z,75.00
2022-08-26T01:01:23.041Z,75.00
2022-08-26T01:01:56.751Z,75.00
2022-08-26T01:02:32.097Z,75.00
2022-08-26T01:03:07.628Z,75.00
2022-08-26T01:03:42.937Z,75.00
2022-08-26T01:04:18.133Z,75.00
2022-08-26T01:04:55.850Z,75.00
2022-08-26T01:05:29.176Z,75.00
2022-08-26T01:06:04.419Z,75.00
2022-08-26T01:06:39.814Z,75.00
2022-08-26T01:07:15.371Z,75.00
2022-08-26T01:07:50.682Z,75.00
2022-08-26T01:08:25.983Z,75.00
2022-08-26T01:09:01.067Z,75.00
2022-08-26T01:09:36.554Z,75.00
2022-08-26T01:10:11.768Z,75.00
2022-08-26T01:10:46.964Z,75.00
2022-08-26T01:11:22.285Z,75.00
2022-08-26T01:11:57.486Z,75.00
2022-08-26T01:12:32.781Z,75.00
2022-08-26T01:13:08.354Z,75.00
2022-08-26T01:13:43.191Z,75.00
2022-08-26T01:14:18.365Z,75.00
2022-08-26T01:14:53.576Z,75.00
2022-08-26T01:15:29.060Z,75.00
2022-08-26T01:16:04.438Z,75.00
2022-08-26T01:16:39.571Z,75.00
2022-08-26T01:17:14.793Z,75.00
2022-08-26T01:17:49.893Z,75.00
2022-08-26T01:18:25.170Z,75.00
2022-08-26T01:19:00.553Z,75.00
2022-08-26T01:19:35.770Z,75.00
2022-08-26T01:20:18.071Z,75.00
2022-08-26T01:20:53.289Z,75.00
2022-08-26T01:21:29.454Z,75.00
2022-08-26T01:22:04.399Z,75.00
2022-08-26T01:22:39.498Z,75.00
2022-08-26T01:23:14.925Z,75.00
2022-08-26T01:23:50.206Z,75.00
2022-08-26T01:24:25.645Z,75.00
2022-08-26T01:25:00.627Z,75.00
2022-08-26T01:25:35.693Z,75.00
2022-08-26T01:26:19.653Z,75.00
2022-08-26T01:26:46.319Z,75.00
2022-08-26T01:27:21.424Z,75.00
2022-08-26T01:27:56.549Z,75.00
2022-08-26T01:28:31.835Z,75.00
2022-08-26T01:29:07.081Z,75.00
2022-08-26T01:29:42.667Z,75.00
2022-08-26T01:30:18.271Z,75.00
2022-08-26T01:30:53.352Z,75.00
2022-08-26T01:31:28.623Z,75.00
2022-08-26T01:32:03.672Z,75.00
2022-08-26T01:32:39.043Z,75.00
2022-08-26T01:33:14.091Z,75.00
2022-08-26T01:33:49.224Z,75.00
2022-08-26T01:34:24.606Z,75.00
2022-08-26T01:34:59.925Z,75.00
2022-08-26T01:35:35.024Z,75.00
2022-08-26T01:36:10.396Z,75.00
2022-08-26T01:36:50.591Z,75.00
2022-08-26T01:37:21.017Z,242.98
2022-08-26T01:37:56.299Z,248.17
2022-08-26T01:38:31.563Z,91.43
2022-08-26T01:39:07.351Z,120.00
2022-08-26T01:39:41.976Z,154.85
2022-08-26T01:40:17.163Z,169.03
2022-08-26T01:40:52.688Z,168.99
2022-08-26T01:41:29.224Z,169.03
2022-08-26T01:42:03.475Z,132.65
2022-08-26T01:42:38.737Z,120.00
2022-08-26T01:43:13.962Z,120.00
2022-08-26T01:43:49.349Z,120.00
2022-08-26T01:44:24.579Z,120.00
2022-08-26T01:44:59.768Z,120.00
2022-08-26T01:45:35.225Z,120.00
2022-08-26T01:46:10.559Z,120.00
2022-08-26T01:46:45.666Z,120.00
2022-08-26T01:47:20.763Z,130.00
2022-08-26T01:47:56.885Z,209.88
2022-08-26T01:48:31.468Z,211.32
2022-08-26T01:49:06.781Z,255.00
2022-08-26T01:49:42.144Z,255.00
2022-08-26T01:50:28.175Z,255.00
2022-08-26T01:50:52.637Z,255.00
2022-08-26T01:51:27.705Z,255.00
2022-08-26T01:52:02.934Z,255.00
2022-08-26T01:52:38.124Z,255.00
2022-08-26T01:53:13.363Z,255.00
2022-08-26T01:53:48.536Z,255.00
2022-08-26T01:54:23.852Z,220.76
2022-08-26T01:54:59.149Z,210.00
2022-08-26T01:55:34.976Z,210.00
2022-08-26T01:56:09.880Z,209.88
2022-08-26T01:56:45.003Z,210.00
2022-08-26T01:57:20.197Z,210.00
2022-08-26T01:57:56.261Z,210.00
2022-08-26T01:58:30.606Z,209.39
2022-08-26T01:59:05.713Z,209.39
2022-08-26T01:59:40.801Z,210.00
2022-08-26T02:00:16.322Z,210.00
2022-08-26T02:00:51.787Z,210.00
2022-08-26T02:01:29.135Z,210.00
2022-08-26T02:02:02.153Z,210.00
2022-08-26T02:02:37.474Z,210.00
2022-08-26T02:03:12.966Z,210.00
2022-08-26T02:03:48.077Z,210.00
2022-08-26T02:04:23.234Z,210.00
2022-08-26T02:04:58.731Z,210.00
2022-08-26T02:05:34.003Z,210.00
2022-08-26T02:06:09.203Z,210.00
2022-08-26T02:06:44.104Z,210.00
2022-08-26T02:07:19.416Z,210.00
2022-08-26T02:07:54.511Z,209.28
2022-08-26T02:08:30.132Z,209.88
2022-08-26T02:09:05.336Z,210.00
2022-08-26T02:09:41.373Z,210.00
2022-08-26T02:10:16.058Z,210.00
2022-08-26T02:10:51.567Z,210.00
2022-08-26T02:11:26.958Z,210.00
2022-08-26T02:12:01.972Z,210.00
2022-08-26T02:12:37.558Z,210.00
2022-08-26T02:13:12.867Z,210.00
2022-08-26T02:13:48.347Z,210.00
2022-08-26T02:14:23.659Z,210.00
2022-08-26T02:14:58.953Z,210.00
2022-08-26T02:15:34.381Z,210.00
2022-08-26T02:16:09.581Z,209.39
2022-08-26T02:16:44.940Z,210.00
2022-08-26T02:17:21.251Z,210.00
2022-08-26T02:17:55.802Z,210.00
2022-08-26T02:18:30.899Z,209.88
2022-08-26T02:19:06.302Z,210.00
2022-08-26T02:19:41.499Z,210.00
2022-08-26T02:20:16.597Z,210.00
2022-08-26T02:20:51.890Z,210.00
2022-08-26T02:21:27.216Z,210.00
2022-08-26T02:22:02.549Z,210.00
2022-08-26T02:22:37.956Z,210.00
2022-08-26T02:23:12.774Z,210.00
2022-08-26T02:23:47.894Z,210.00
2022-08-26T02:24:22.879Z,210.00
2022-08-26T02:24:57.890Z,210.00
2022-08-26T02:25:33.080Z,189.80
2022-08-26T02:26:08.498Z,170.45
2022-08-26T02:26:43.786Z,173.30
2022-08-26T02:27:18.805Z,168.96
2022-08-26T02:27:54.190Z,170.42
2022-08-26T02:28:29.390Z,167.74
2022-08-26T02:29:04.677Z,168.99
2022-08-26T02:29:39.779Z,170.45
2022-08-26T02:30:15.374Z,171.83
2022-08-26T02:30:50.491Z,167.58
2022-08-26T02:31:25.952Z,171.91
2022-08-26T02:32:01.116Z,169.06
2022-08-26T02:32:36.521Z,171.88
2022-08-26T02:33:11.544Z,163.30
2022-08-26T02:33:46.633Z,143.00
2022-08-26T02:34:21.822Z,143.00
2022-08-26T02:34:56.926Z,143.00
2022-08-26T02:35:32.119Z,143.00
2022-08-26T02:36:07.421Z,143.00
2022-08-26T02:36:42.717Z,143.00
2022-08-26T02:37:18.145Z,143.00
2022-08-26T02:37:53.445Z,143.00
2022-08-26T02:38:28.767Z,143.00
2022-08-26T02:39:03.872Z,143.00
2022-08-26T02:39:39.088Z,143.00
2022-08-26T02:40:14.031Z,143.00
2022-08-26T02:40:49.089Z,167.70
2022-08-26T02:41:24.521Z,166.23
2022-08-26T02:41:59.756Z,174.77
2022-08-26T02:42:34.855Z,171.85
2022-08-26T02:43:10.447Z,171.88
2022-08-26T02:43:45.443Z,170.48
2022-08-26T02:44:20.627Z,167.62
2022-08-26T02:44:56.043Z,167.66
2022-08-26T02:45:31.114Z,171.91
2022-08-26T02:46:06.419Z,165.00
2022-08-26T02:46:41.573Z,170.45
2022-08-26T02:47:16.800Z,171.83
2022-08-26T02:47:52.397Z,170.51
2022-08-26T02:48:27.211Z,171.85
2022-08-26T02:49:02.512Z,173.28
2022-08-26T02:49:37.920Z,171.88
2022-08-26T02:50:13.111Z,167.58
2022-08-26T02:50:48.639Z,168.96
2022-08-26T02:51:24.031Z,170.45
2022-08-26T02:51:59.346Z,170.45
2022-08-26T02:52:34.527Z,167.58
2022-08-26T02:53:10.041Z,173.28
2022-08-26T02:53:45.150Z,165.00
2022-08-26T02:54:20.470Z,173.26
2022-08-26T02:54:55.916Z,170.42
2022-08-26T02:55:31.212Z,166.27
2022-08-26T02:56:06.415Z,171.88
2022-08-26T02:56:41.747Z,170.42
2022-08-26T02:57:16.952Z,169.06
2022-08-26T02:57:52.049Z,165.00
2022-08-26T02:58:26.962Z,165.00
2022-08-26T02:59:02.071Z,174.72
2022-08-26T02:59:37.368Z,169.03
2022-08-26T03:00:12.676Z,173.28
2022-08-26T03:00:52.991Z,170.29
2022-08-26T03:01:23.203Z,168.99
2022-08-26T03:01:58.507Z,167.62
2022-08-26T03:02:33.676Z,167.62
2022-08-26T03:03:08.815Z,165.60
2022-08-26T03:03:43.871Z,143.00
2022-08-26T03:04:19.184Z,143.00
2022-08-26T03:04:57.897Z,161.90
2022-08-26T03:05:29.784Z,167.62
2022-08-26T03:06:05.284Z,170.42
2022-08-26T03:06:40.700Z,166.27
2022-08-26T03:07:15.816Z,170.42
2022-08-26T03:07:51.218Z,167.58
2022-08-26T03:08:26.443Z,170.42
2022-08-26T03:09:01.657Z,170.35
2022-08-26T03:09:36.879Z,168.92
2022-08-26T03:10:12.174Z,170.42
2022-08-26T03:10:48.043Z,170.45
2022-08-26T03:11:23.191Z,170.42
2022-08-26T03:11:58.325Z,167.62
2022-08-26T03:12:33.428Z,165.00
2022-08-26T03:13:08.758Z,170.45
2022-08-26T03:13:43.832Z,170.45
2022-08-26T03:14:19.043Z,168.99
2022-08-26T03:14:54.134Z,168.99
2022-08-26T03:15:29.235Z,166.23
2022-08-26T03:16:04.406Z,167.62
2022-08-26T03:16:39.727Z,170.48
2022-08-26T03:17:14.840Z,167.66
2022-08-26T03:17:50.518Z,171.85
2022-08-26T03:18:25.852Z,169.03
2022-08-26T03:19:01.078Z,170.48
2022-08-26T03:19:36.371Z,170.45
2022-08-26T03:20:11.672Z,171.85
2022-08-26T03:20:46.969Z,170.35
2022-08-26T03:21:22.193Z,167.58
2022-08-26T03:21:57.912Z,171.85
2022-08-26T03:22:32.599Z,167.66
2022-08-26T03:23:08.182Z,169.03
2022-08-26T03:23:42.989Z,165.00
2022-08-26T03:24:18.194Z,168.96
2022-08-26T03:24:53.689Z,171.80
2022-08-26T03:25:29.173Z,166.14
2022-08-26T03:26:04.369Z,167.66
2022-08-26T03:26:39.889Z,165.00
2022-08-26T03:27:15.535Z,171.85
2022-08-26T03:27:50.746Z,167.58
2022-08-26T03:28:27.253Z,166.23
2022-08-26T03:29:01.149Z,168.96
2022-08-26T03:29:36.357Z,167.62
2022-08-26T03:30:11.750Z,171.80
2022-08-26T03:30:46.782Z,170.38
2022-08-26T03:31:22.063Z,168.96
2022-08-26T03:31:57.221Z,168.96
2022-08-26T03:32:32.524Z,171.88
2022-08-26T03:33:08.127Z,170.51
2022-08-26T03:33:43.109Z,169.03
2022-08-26T03:34:18.433Z,167.54
2022-08-26T03:34:53.441Z,167.62
2022-08-26T03:35:28.846Z,170.51
2022-08-26T03:36:04.228Z,170.45
2022-08-26T03:36:39.344Z,166.19
2022-08-26T03:37:14.536Z,169.03
2022-08-26T03:37:50.127Z,170.38
2022-08-26T03:38:25.226Z,170.45
2022-08-26T03:39:00.733Z,173.32
2022-08-26T03:39:36.343Z,165.00
2022-08-26T03:40:11.818Z,174.74
2022-08-26T03:40:46.871Z,173.32
2022-08-26T03:41:22.162Z,170.42
2022-08-26T03:41:57.586Z,167.66
2022-08-26T03:42:32.782Z,170.45
2022-08-26T03:43:09.536Z,169.03
2022-08-26T03:43:43.218Z,169.03
2022-08-26T03:44:18.323Z,166.23
2022-08-26T03:44:53.534Z,168.96
2022-08-26T03:45:29.100Z,169.03
2022-08-26T03:46:04.269Z,173.30
2022-08-26T03:46:39.518Z,167.62
2022-08-26T03:47:14.845Z,177.70
2022-08-26T03:47:50.143Z,168.99
2022-08-26T03:48:25.641Z,169.06
2022-08-26T03:49:00.552Z,167.62
2022-08-26T03:49:35.539Z,164.76
2022-08-26T03:50:10.655Z,166.19
2022-08-26T03:50:45.842Z,171.91
2022-08-26T03:51:21.258Z,171.83
2022-08-26T03:51:56.666Z,201.64
2022-08-26T03:52:31.953Z,210.00
2022-08-26T03:53:11.762Z,210.00
2022-08-26T03:53:42.446Z,179.14
2022-08-26T03:54:17.646Z,167.58
2022-08-26T03:54:53.036Z,169.06
2022-08-26T03:55:28.550Z,165.00
2022-08-26T03:56:03.871Z,169.03
2022-08-26T03:56:38.899Z,168.99
2022-08-26T03:57:14.199Z,120.00
2022-08-26T03:57:49.199Z,120.00
2022-08-26T03:58:24.101Z,120.00
2022-08-26T03:58:59.297Z,120.00
2022-08-26T03:59:34.801Z,120.00
2022-08-26T04:00:10.199Z,120.00
2022-08-26T04:00:45.324Z,120.00
2022-08-26T04:01:20.833Z,139.05
2022-08-26T04:01:55.870Z,188.14
2022-08-26T04:02:31.413Z,120.00
2022-08-26T04:03:06.624Z,165.00
2022-08-26T04:03:41.670Z,182.16
2022-08-26T04:04:16.751Z,209.39
2022-08-26T04:04:52.079Z,184.43
2022-08-26T04:05:27.087Z,167.50
2022-08-26T04:06:02.487Z,174.68
2022-08-26T04:06:37.819Z,171.91
2022-08-26T04:07:13.003Z,169.03
2022-08-26T04:07:48.598Z,207.95
2022-08-26T04:08:23.523Z,174.72
2022-08-26T04:08:59.197Z,168.96
2022-08-26T04:09:35.233Z,161.31
2022-08-26T04:10:09.892Z,170.51
2022-08-26T04:10:45.201Z,166.11
2022-08-26T04:11:20.474Z,168.99
2022-08-26T04:11:55.679Z,174.77
2022-08-26T04:12:30.872Z,147.34
2022-08-26T04:13:06.003Z,105.11
2022-08-26T04:13:40.912Z,83.26
2022-08-26T04:14:17.649Z,75.00
2022-08-26T04:14:51.492Z,75.00
2022-08-26T04:15:27.129Z,91.43
2022-08-26T04:16:02.591Z,75.00
2022-08-26T04:16:38.035Z,120.77
2022-08-26T04:17:13.557Z,91.31
2022-08-26T04:17:48.951Z,207.10
2022-08-26T04:18:24.146Z,210.00
2022-08-26T04:18:59.360Z,185.57
2022-08-26T04:19:34.649Z,147.30
2022-08-26T04:20:09.960Z,120.00
2022-08-26T04:20:45.064Z,134.40
2022-08-26T04:21:20.578Z,207.37
2022-08-26T04:21:55.801Z,198.69
2022-08-26T04:22:31.201Z,207.95
2022-08-26T04:23:06.558Z,246.01
2022-08-26T04:23:47.654Z,272.16
2022-08-26T04:24:17.660Z,255.00
2022-08-26T04:24:52.167Z,236.32
2022-08-26T04:25:27.279Z,210.00
2022-08-26T04:26:02.176Z,210.00
2022-08-26T04:26:39.525Z,210.00
2022-08-26T04:27:12.969Z,224.46
2022-08-26T04:27:48.172Z,195.84
2022-08-26T04:28:23.259Z,173.74
2022-08-26T04:28:58.246Z,204.50
2022-08-26T04:29:33.665Z,148.69
2022-08-26T04:30:09.597Z,71.63
2022-08-26T04:30:44.683Z,97.79
2022-08-26T04:31:20.138Z,167.62
2022-08-26T04:31:55.802Z,173.30
2022-08-26T04:32:30.244Z,173.26
2022-08-26T04:33:12.928Z,170.42
2022-08-26T04:33:41.856Z,174.72
2022-08-26T04:34:16.586Z,165.73
2022-08-26T04:34:51.710Z,108.83
2022-08-26T04:35:26.881Z,120.00
2022-08-26T04:36:02.120Z,120.00
2022-08-26T04:36:37.411Z,140.64
2022-08-26T04:37:12.638Z,171.83
2022-08-26T04:37:47.619Z,131.95
2022-08-26T04:38:22.855Z,90.64
2022-08-26T04:38:58.155Z,171.16
2022-08-26T04:39:33.276Z,209.88
2022-08-26T04:40:08.570Z,209.39
2022-08-26T04:40:46.751Z,161.20
2022-08-26T04:41:19.329Z,147.84
2022-08-26T04:41:54.747Z,139.18
2022-08-26T04:42:29.854Z,207.84
2022-08-26T04:43:05.135Z,179.14
2022-08-26T04:43:39.859Z,171.77
2022-08-26T04:44:14.966Z,171.85
2022-08-26T04:44:50.085Z,177.66
2022-08-26T04:45:25.115Z,189.73
2022-08-26T04:46:00.204Z,120.00
2022-08-26T04:46:35.519Z,152.23
2022-08-26T04:47:10.966Z,176.30
2022-08-26T04:47:46.374Z,198.96
2022-08-26T04:48:21.908Z,172.94
2022-08-26T04:48:56.996Z,165.09
2022-08-26T04:49:35.541Z,136.60
2022-08-26T04:50:07.860Z,122.27
2022-08-26T04:50:43.064Z,253.76
2022-08-26T04:51:18.371Z,154.79
2022-08-26T04:51:53.674Z,171.80
2022-08-26T04:52:28.885Z,166.32
2022-08-26T04:53:04.003Z,81.63
2022-08-26T04:53:39.455Z,205.76
2022-08-26T04:54:15.050Z,200.20
2022-08-26T04:54:50.476Z,171.28
2022-08-26T04:55:38.537Z,204.47
2022-08-26T04:56:00.908Z,186.51
2022-08-26T04:56:36.254Z,180.71
2022-08-26T04:57:11.633Z,168.55
2022-08-26T04:57:46.853Z,156.31
2022-08-26T04:58:22.292Z,182.76
2022-08-26T04:58:57.729Z,195.84
2022-08-26T04:59:36.012Z,238.11
2022-08-26T05:00:08.450Z,102.32
2022-08-26T05:00:43.491Z,196.13
2022-08-26T05:01:18.645Z,132.21
2022-08-26T05:01:54.128Z,100.02
2022-08-26T05:02:29.455Z,84.36
2022-08-26T05:03:04.726Z,251.21
2022-08-26T05:03:40.146Z,193.52
2022-08-26T05:04:16.207Z,154.93
2022-08-26T05:04:51.893Z,153.04
2022-08-26T05:05:25.760Z,95.99
2022-08-26T05:06:01.051Z,172.40
2022-08-26T05:06:37.198Z,136.27
2022-08-26T05:07:11.996Z,102.61
2022-08-26T05:07:47.429Z,118.47
2022-08-26T05:08:22.631Z,218.07
2022-08-26T05:08:58.157Z,181.21
2022-08-26T05:09:33.454Z,156.50
2022-08-26T05:10:08.918Z,186.08
2022-08-26T05:10:43.800Z,141.26
2022-08-26T05:11:19.324Z,153.80
2022-08-26T05:11:54.913Z,140.20
2022-08-26T05:12:30.155Z,150.98
2022-08-26T05:13:05.451Z,208.68
2022-08-26T05:13:40.878Z,168.96
2022-08-26T05:14:15.898Z,41.06
2022-08-26T05:14:51.124Z,81.18
2022-08-26T05:15:26.322Z,174.36
2022-08-26T05:16:01.965Z,100.48
2022-08-26T05:16:37.463Z,266.47
2022-08-26T05:17:14.991Z,130.20
2022-08-26T05:17:48.044Z,135.63
2022-08-26T05:18:23.286Z,75.00
2022-08-26T05:18:58.882Z,175.86
2022-08-26T05:19:34.023Z,150.20
2022-08-26T05:20:09.534Z,175.55
2022-08-26T05:20:44.887Z,69.72
2022-08-26T05:21:20.547Z,180.93
2022-08-26T05:21:55.885Z,183.15
2022-08-26T05:22:31.292Z,131.26
2022-08-26T05:23:06.933Z,218.26
2022-08-26T05:23:42.166Z,101.14
2022-08-26T05:24:17.907Z,97.28
2022-08-26T05:24:52.596Z,134.81
2022-08-26T05:25:27.811Z,134.93
2022-08-26T05:26:04.942Z,166.32
2022-08-26T05:26:38.460Z,87.78
2022-08-26T05:27:13.539Z,172.42
2022-08-26T05:27:48.770Z,264.84
2022-08-26T05:28:23.786Z,109.59
2022-08-26T05:28:58.901Z,74.40
2022-08-26T05:29:34.305Z,178.68
2022-08-26T05:30:09.822Z,149.99
2022-08-26T05:30:44.996Z,110.00
2022-08-26T05:31:20.309Z,167.66
2022-08-26T05:31:56.028Z,184.02
2022-08-26T05:32:30.984Z,169.92
2022-08-26T05:33:06.214Z,120.00
2022-08-26T05:33:41.674Z,215.64
2022-08-26T05:34:16.875Z,155.87
2022-08-26T05:34:52.295Z,217.59
2022-08-26T05:35:27.527Z,163.95
2022-08-26T05:36:02.731Z,108.08
2022-08-26T05:36:38.052Z,120.00
2022-08-26T05:37:13.679Z,169.71
2022-08-26T05:37:48.067Z,139.92
2022-08-26T05:38:23.332Z,166.09
2022-08-26T05:38:58.374Z,209.80
2022-08-26T05:39:33.429Z,213.30
2022-08-26T05:40:08.949Z,161.16
2022-08-26T05:40:44.149Z,188.53
2022-08-26T05:41:19.571Z,202.41
2022-08-26T05:41:54.777Z,173.27
2022-08-26T05:42:29.887Z,344.22
2022-08-26T05:43:06.204Z,135.66
2022-08-26T05:43:41.601Z,210.59
2022-08-26T05:44:16.989Z,179.15
2022-08-26T05:44:55.391Z,184.46
2022-08-26T05:45:27.436Z,145.93
2022-08-26T05:46:02.641Z,184.06
2022-08-26T05:46:38.114Z,124.14
2022-08-26T05:47:13.272Z,111.25
2022-08-26T05:47:48.521Z,194.69
2022-08-26T05:48:24.438Z,127.82
2022-08-26T05:48:58.920Z,159.71
2022-08-26T05:49:34.346Z,90.12
2022-08-26T05:50:09.645Z,210.00
2022-08-26T05:50:45.156Z,193.61
2022-08-26T05:51:23.982Z,207.10
2022-08-26T05:51:55.617Z,255.00
2022-08-26T05:52:30.916Z,249.58
2022-08-26T05:53:06.037Z,210.00
2022-08-26T05:53:43.988Z,226.43
2022-08-26T05:54:22.084Z,202.50
2022-08-26T05:54:52.254Z,208.05
2022-08-26T05:55:27.588Z,77.66
2022-08-26T05:56:02.874Z,112.05
2022-08-26T05:56:38.093Z,161.23
2022-08-26T05:57:13.396Z,208.54
2022-08-26T05:57:48.513Z,218.60
2022-08-26T05:58:23.743Z,204.01
2022-08-26T05:58:59.727Z,119.54
2022-08-26T05:59:34.202Z,92.95
2022-08-26T06:00:09.318Z,159.25
2022-08-26T06:00:44.531Z,192.72
2022-08-26T06:01:19.700Z,197.99
2022-08-26T06:01:55.354Z,183.51
2022-08-26T06:02:30.295Z,207.34
2022-08-26T06:03:05.726Z,209.81
2022-08-26T06:03:40.802Z,180.57
2022-08-26T06:04:15.954Z,134.93
2022-08-26T06:04:50.994Z,207.75
2022-08-26T06:05:26.107Z,198.83
2022-08-26T06:06:01.316Z,206.60
2022-08-26T06:06:36.443Z,53.27
2022-08-26T06:07:12.083Z,104.06
2022-08-26T06:07:47.240Z,206.45
2022-08-26T06:08:22.502Z,236.37
2022-08-26T06:09:05.626Z,225.87
2022-08-26T06:09:41.336Z,172.84
2022-08-26T06:10:31.688Z,139.34
2022-08-26T06:10:51.541Z,198.68
2022-08-26T06:11:26.897Z,204.48
2022-08-26T06:12:02.261Z,220.48
2022-08-26T06:12:37.989Z,210.00
2022-08-26T06:13:13.691Z,208.06
2022-08-26T06:13:48.956Z,126.56
2022-08-26T06:14:24.263Z,138.15
2022-08-26T06:14:59.270Z,333.79
2022-08-26T06:15:34.624Z,176.92
2022-08-26T06:16:09.809Z,195.02
2022-08-26T06:16:45.121Z,208.48
2022-08-26T06:17:20.328Z,154.18
2022-08-26T06:17:55.741Z,199.60
2022-08-26T06:18:30.868Z,170.48
2022-08-26T06:19:10.554Z,168.99
2022-08-26T06:19:41.584Z,171.77
2022-08-26T06:20:16.868Z,171.85
2022-08-26T06:20:57.195Z,138.87
2022-08-26T06:21:27.641Z,184.02
2022-08-26T06:22:02.867Z,142.36
2022-08-26T06:22:38.140Z,18.40
2022-08-26T06:23:13.483Z,178.82
2022-08-26T06:23:48.918Z,210.20
2022-08-26T06:24:27.255Z,204.58
2022-08-26T06:24:59.244Z,169.17
2022-08-26T06:25:34.579Z,201.16
2022-08-26T06:26:10.983Z,221.39
2022-08-26T06:26:50.300Z,64.67
2022-08-26T06:27:20.819Z,352.55
2022-08-26T06:27:56.295Z,35.42
2022-08-26T06:28:31.301Z,75.00
2022-08-26T06:29:06.740Z,133.98
2022-08-26T06:29:42.052Z,161.48
2022-08-26T06:30:17.407Z,195.34
2022-08-26T06:30:52.835Z,92.39
2022-08-26T06:31:28.400Z,171.88
2022-08-26T06:32:03.560Z,166.18
2022-08-26T06:32:38.831Z,31.10
2022-08-26T06:33:14.126Z,205.37
2022-08-26T06:33:49.359Z,170.48
2022-08-26T06:34:29.851Z,187.82
2022-08-26T06:34:59.975Z,143.95
2022-08-26T06:35:35.276Z,164.30
2022-08-26T06:36:10.623Z,179.13
2022-08-26T06:36:46.078Z,318.78
2022-08-26T06:37:21.549Z,146.17
2022-08-26T06:37:56.737Z,89.36
2022-08-26T06:38:32.266Z,120.57
2022-08-26T06:39:07.784Z,175.52
2022-08-26T06:39:43.115Z,47.22
2022-08-26T06:40:18.289Z,114.53
2022-08-26T06:40:53.462Z,35.42
2022-08-26T06:41:28.906Z,89.09
2022-08-26T06:42:06.262Z,236.37
2022-08-26T06:42:39.443Z,190.05
2022-08-26T06:43:14.846Z,115.43
2022-08-26T06:43:50.057Z,80.32
2022-08-26T06:44:25.312Z,211.46
2022-08-26T06:45:00.321Z,192.01
2022-08-26T06:45:35.438Z,200.37
2022-08-26T06:46:10.573Z,186.84
2022-08-26T06:46:46.221Z,174.77
2022-08-26T06:47:21.418Z,152.68
2022-08-26T06:47:56.489Z,107.05
2022-08-26T06:48:31.906Z,140.45
2022-08-26T06:49:07.232Z,140.47
2022-08-26T06:49:42.632Z,165.00
2022-08-26T06:50:17.732Z,157.67
2022-08-26T06:50:53.139Z,199.90
2022-08-26T06:51:28.699Z,62.59
2022-08-26T06:52:03.905Z,51.92
2022-08-26T06:52:39.041Z,180.66
2022-08-26T06:53:14.542Z,173.23
2022-08-26T06:53:49.761Z,169.06
2022-08-26T06:54:24.861Z,167.54
2022-08-26T06:55:00.107Z,176.17
2022-08-26T06:55:35.197Z,214.44
2022-08-26T06:56:10.625Z,129.53
2022-08-26T06:56:46.142Z,198.36
2022-08-26T06:57:21.303Z,184.16
2022-08-26T06:57:56.771Z,135.58
2022-08-26T06:58:32.185Z,233.45
2022-08-26T06:59:07.690Z,209.39
2022-08-26T06:59:42.710Z,78.45
2022-08-26T07:00:18.130Z,210.00
2022-08-26T07:00:53.569Z,192.07
2022-08-26T07:01:28.820Z,226.35
2022-08-26T07:02:04.118Z,170.38
2022-08-26T07:02:39.419Z,167.58
2022-08-26T07:03:14.566Z,202.12
2022-08-26T07:03:49.476Z,224.55
2022-08-26T07:04:24.814Z,210.00
2022-08-26T07:05:00.024Z,216.77
2022-08-26T07:05:35.776Z,209.72
2022-08-26T07:06:10.960Z,171.18
2022-08-26T07:06:46.601Z,166.44
2022-08-26T07:07:22.117Z,41.90
2022-08-26T07:07:56.903Z,200.57
2022-08-26T07:08:31.896Z,255.00
2022-08-26T07:09:07.194Z,216.24
2022-08-26T07:09:42.298Z,210.00
2022-08-26T07:10:17.500Z,210.00
2022-08-26T07:10:52.714Z,164.76
2022-08-26T07:11:27.828Z,255.00
2022-08-26T07:12:03.237Z,84.32
2022-08-26T07:12:38.639Z,68.74
2022-08-26T07:13:13.939Z,209.12
2022-08-26T07:13:49.090Z,55.30
2022-08-26T07:14:24.196Z,146.58
2022-08-26T07:14:59.487Z,142.72
2022-08-26T07:15:34.979Z,116.99
2022-08-26T07:16:10.578Z,141.98
2022-08-26T07:16:45.956Z,212.07
2022-08-26T07:17:21.158Z,125.01
2022-08-26T07:17:56.170Z,210.40
2022-08-26T07:18:31.290Z,202.89
2022-08-26T07:19:11.238Z,120.00
2022-08-26T07:19:41.819Z,196.47
2022-08-26T07:20:17.153Z,214.78
2022-08-26T07:20:52.252Z,250.97
2022-08-26T07:21:27.679Z,211.63
2022-08-26T07:22:03.487Z,76.85
2022-08-26T07:22:38.614Z,43.95
2022-08-26T07:23:13.705Z,83.41
2022-08-26T07:23:49.082Z,161.51
2022-08-26T07:24:24.141Z,205.63